Time;durP1;ratioP1;P1;durP2;ratioP2;P2;SDS_P1;SDS_P2;PMS_P1;PMS_P2;Temp;Humidity;BMP_temperature;BMP_pressure;BME280_temperature;BME280_humidity;BME280_pressure;Samples;Min_cycle;Max_cycle;Signal;HPM_P1;HPM_P2
2021/07/29 00:01:19;;;;;;;;;0.00;0.00;;;;;27.73;36.95;100584.81;5055122;28;45848;-59
2021/07/29 00:03:45;;;;;;;;;0.00;0.00;;;;;27.76;37.36;100588.34;5054660;28;45406;-59
2021/07/29 00:06:15;;;;;;;;;0.00;0.00;;;;;27.73;37.04;100582.09;5054520;28;45457;-59
2021/07/29 00:08:41;;;;;;;;;0.00;0.00;;;;;27.71;37.39;100588.59;5054584;28;45494;-59
2021/07/29 00:11:07;;;;;;;;;0.00;0.00;;;;;27.73;37.04;100593.03;5054868;28;45655;-59
2021/07/29 00:13:33;;;;;;;;;0.00;0.00;;;;;27.72;36.92;100596.72;5054505;28;45401;-59
2021/07/29 00:16:02;;;;;;;;;0.00;0.00;;;;;27.73;36.79;100594.84;5054335;28;45393;-59
2021/07/29 00:21:11;;;;;;;;;0.00;0.00;;;;;27.73;36.84;100593.03;5054495;28;45425;-59
2021/07/29 00:23:37;;;;;;;;;0.00;0.00;;;;;27.73;37.71;100582.09;5054035;28;46355;-59
2021/07/29 00:26:03;;;;;;;;;0.00;0.00;;;;;27.74;37.57;100594.78;5054295;28;45496;-58
2021/07/29 00:28:28;;;;;;;;;0.00;0.00;;;;;27.74;37.58;100599.38;5054517;28;45372;-59
2021/07/29 00:30:53;;;;;;;;;0.00;0.00;;;;;27.74;37.13;100592.03;5054451;28;45451;-59
2021/07/29 00:33:19;;;;;;;;;0.00;0.00;;;;;27.74;37.06;100591.16;5054350;28;45600;-59
2021/07/29 00:35:45;;;;;;;;;0.00;0.00;;;;;27.76;37.49;100585.63;5054295;28;45481;-59
2021/07/29 00:38:11;;;;;;;;;0.00;0.00;;;;;27.73;37.07;100578.47;5054611;28;45516;-59
2021/07/29 00:40:36;;;;;;;;;0.00;0.00;;;;;27.73;37.70;100587.56;5054474;28;45636;-58
2021/07/29 00:43:02;;;;;;;;;0.00;0.00;;;;;27.74;37.70;100582.97;5053925;28;46140;-59
2021/07/29 00:45:27;;;;;;;;;0.00;0.00;;;;;27.74;37.54;100577.50;5054132;28;45401;-59
2021/07/29 00:47:53;;;;;;;;;0.00;0.00;;;;;27.74;37.17;100583.84;5035727;28;45443;-58
2021/07/29 00:50:25;;;;;;;;;0.00;0.00;;;;;27.73;37.14;100579.38;5054697;28;45417;-58
2021/07/29 00:52:51;;;;;;;;;0.00;0.00;;;;;27.73;37.21;100587.56;5054049;28;45474;-59
2021/07/29 00:55:20;;;;;;;;;0.00;0.00;;;;;27.74;37.50;100582.97;5035709;28;45794;-59
2021/07/29 00:57:47;;;;;;;;;0.00;0.00;;;;;27.73;37.00;100587.56;5036295;28;45431;-59
2021/07/29 01:00:13;;;;;;;;;0.00;0.00;;;;;27.74;37.58;100582.97;5054360;28;45523;-59
2021/07/29 01:02:39;;;;;;;;;0.00;0.00;;;;;27.72;37.33;100585.78;5053611;28;45452;-58
2021/07/29 01:05:06;;;;;;;;;0.00;0.00;;;;;27.72;37.20;100584.91;5055471;28;45504;-59
2021/07/29 01:07:32;;;;;;;;;0.00;0.00;;;;;27.72;37.46;100579.44;5057570;28;45423;-59
2021/07/29 01:09:57;;;;;;;;;0.00;0.00;;;;;27.71;37.78;100575.84;5057506;28;45334;-59
2021/07/29 01:12:23;;;;;;;;;0.00;0.00;;;;;27.71;37.11;100580.41;5057126;28;45916;-58
2021/07/29 01:14:48;;;;;;;;;0.00;0.00;;;;;27.69;37.60;100577.78;5057382;28;45750;-59
2021/07/29 01:17:13;;;;;;;;;0.00;0.00;;;;;27.70;37.06;100585.00;5057401;28;45479;-58
2021/07/29 01:19:39;;;;;;;;;0.00;0.00;;;;;27.69;37.60;100580.53;5057593;28;45657;-59
2021/07/29 01:22:05;;;;;;;;;0.00;0.00;;;;;27.69;37.19;100583.25;5057159;28;45473;-58
2021/07/29 01:24:31;;;;;;;;;0.00;0.00;;;;;27.69;37.05;100590.53;5057146;28;45544;-58
2021/07/29 01:27:03;;;;;;;;;0.00;0.00;;;;;27.68;37.50;100589.66;5057455;28;45443;-59
2021/07/29 01:29:35;;;;;;;;;0.00;0.00;;;;;27.69;37.59;100596.00;5057435;28;45677;-59
2021/07/29 01:32:00;;;;;;;;;0.00;0.00;;;;;27.68;37.46;100600.59;5057020;28;45367;-59
2021/07/29 01:34:26;;;;;;;;;0.00;0.00;;;;;27.68;37.33;100594.25;5038806;28;45713;-59
2021/07/29 01:36:52;;;;;;;;;0.00;0.00;;;;;27.67;37.09;100600.69;5057052;28;45531;-59
2021/07/29 01:39:17;;;;;;;;;0.00;0.00;;;;;27.66;37.19;100597.09;5057096;28;45412;-58
2021/07/29 01:41:42;;;;;;;;;0.00;0.00;;;;;27.66;37.36;100602.53;5056792;28;45440;-58
2021/07/29 01:44:08;;;;;;;;;0.00;0.00;;;;;27.65;37.69;100597.16;5056794;28;45398;-58
2021/07/29 01:46:33;;;;;;;;;0.00;0.00;;;;;27.66;37.70;100604.41;5057175;28;45670;-59
2021/07/29 01:48:58;;;;;;;;;0.00;0.00;;;;;27.65;37.70;100599.91;5056985;28;45402;-58
2021/07/29 01:51:24;;;;;;;;;0.00;0.00;;;;;27.64;37.27;100604.50;5056875;28;45757;-59
2021/07/29 01:53:49;;;;;;;;;0.00;0.00;;;;;27.63;37.35;100596.38;5056742;28;45431;-61
2021/07/29 01:56:14;;;;;;;;;0.00;0.00;;;;;27.63;37.92;100597.28;5057185;28;45674;-59
2021/07/29 01:58:41;;;;;;;;;0.00;0.00;;;;;27.63;37.25;100597.28;5056850;28;45539;-58
2021/07/29 02:01:06;;;;;;;;;0.00;0.00;;;;;27.64;37.91;100599.03;5056459;28;45449;-59
2021/07/29 02:03:32;;;;;;;;;0.00;0.00;;;;;27.61;37.90;100593.75;5056224;28;45562;-59
2021/07/29 02:06:02;;;;;;;;;0.00;0.00;;;;;27.62;37.84;100598.25;5037847;28;44868;-59
2021/07/29 02:08:27;;;;;;;;;0.00;0.00;;;;;27.62;37.31;100600.97;5055291;28;45501;-58
2021/07/29 02:10:52;;;;;;;;;0.00;0.00;;;;;27.63;37.36;100602.75;5056264;28;46048;-59
2021/07/29 02:13:18;;;;;;;;;0.00;0.00;;;;;27.62;37.62;100598.25;5056514;28;45486;-59
2021/07/29 02:15:43;;;;;;;;;0.00;0.00;;;;;27.62;37.59;100595.50;5056378;28;45229;-59
2021/07/29 02:18:08;;;;;;;;;0.00;0.00;;;;;27.60;37.92;100594.72;5056522;28;45484;-59
2021/07/29 02:20:34;;;;;;;;;0.00;0.00;;;;;27.61;37.49;100591.03;5056478;28;45482;-59
2021/07/29 02:23:00;;;;;;;;;0.00;0.00;;;;;27.62;38.07;100600.97;5056238;28;45413;-59
2021/07/29 02:25:25;;;;;;;;;0.00;0.00;;;;;27.61;38.09;100595.59;5038055;28;45518;-58
2021/07/29 02:27:51;;;;;;;;;0.00;0.00;;;;;27.61;37.75;100599.22;5056349;28;45440;-58
2021/07/29 02:30:16;;;;;;;;;0.00;0.00;;;;;27.60;38.09;100592.00;5056302;28;45444;-59
2021/07/29 02:32:42;;;;;;;;;0.00;0.00;;;;;27.60;37.72;100602.91;5037770;28;45428;-58
2021/07/29 02:35:09;;;;;;;;;0.00;0.00;;;;;27.60;38.08;100600.19;5056372;28;45368;-59
2021/07/29 02:37:35;;;;;;;;;0.00;0.00;;;;;27.58;37.58;100591.19;5056375;28;45816;-58
2021/07/29 02:40:00;;;;;;;;;0.00;0.00;;;;;27.59;37.81;100597.53;5055953;28;45947;-57
2021/07/29 02:42:26;;;;;;;;;0.00;0.00;;;;;27.59;37.87;100605.72;5055971;28;45425;-59
2021/07/29 02:44:52;;;;;;;;;0.00;0.00;;;;;27.59;37.46;100603.91;5056087;28;45426;-59
2021/07/29 02:47:17;;;;;;;;;0.00;0.00;;;;;27.58;37.62;100604.84;5055571;28;45386;-59
2021/07/29 02:49:43;;;;;;;;;0.00;0.00;;;;;27.59;37.58;100608.47;5055794;28;45431;-59
2021/07/29 02:52:08;;;;;;;;;0.00;0.00;;;;;27.58;37.59;100606.72;5055871;28;45367;-58
2021/07/29 02:54:34;;;;;;;;;0.00;0.00;;;;;27.57;37.54;100611.31;5055836;28;45379;-59
2021/07/29 02:56:59;;;;;;;;;0.00;0.00;;;;;27.56;37.62;100601.34;5056330;28;45766;-58
2021/07/29 02:59:25;;;;;;;;;0.00;0.00;;;;;27.58;37.61;100610.31;5055776;28;45480;-58
2021/07/29 03:01:50;;;;;;;;;0.00;0.00;;;;;27.56;38.22;100612.25;5055443;28;45497;-58
2021/07/29 03:04:16;;;;;;;;;0.00;0.00;;;;;27.55;37.83;100605.03;5055850;28;45487;-59
2021/07/29 03:06:41;;;;;;;;;0.00;0.00;;;;;27.54;38.09;100616.94;5055790;28;45429;-59
2021/07/29 03:09:10;;;;;;;;;0.00;0.00;;;;;27.53;37.92;100612.44;5055267;28;46080;-59
2021/07/29 03:11:36;;;;;;;;;0.00;0.00;;;;;27.53;37.56;100621.53;5055495;28;45429;-58
2021/07/29 03:14:02;;;;;;;;;0.00;0.00;;;;;27.52;37.98;100625.22;5055703;28;45437;-59
2021/07/29 03:16:27;;;;;;;;;0.00;0.00;;;;;27.53;37.57;100623.34;5055665;28;45370;-59
2021/07/29 03:18:52;;;;;;;;;0.00;0.00;;;;;27.51;38.11;100619.84;5055203;28;46178;-59
2021/07/29 03:21:18;;;;;;;;;0.00;0.00;;;;;27.51;38.13;100619.84;5055675;28;45450;-59
2021/07/29 03:23:44;;;;;;;;;0.00;0.00;;;;;27.50;37.65;100620.81;5055373;28;45633;-60
2021/07/29 03:26:10;;;;;;;;;0.00;0.00;;;;;27.50;38.19;100612.63;5055685;28;45514;-59
2021/07/29 03:28:35;;;;;;;;;0.00;0.00;;;;;27.50;38.12;100623.56;5054419;28;45449;-59
2021/07/29 03:31:00;;;;;;;;;0.00;0.00;;;;;27.49;38.26;100621.78;5055215;28;45528;-60
2021/07/29 03:33:25;;;;;;;;;0.00;0.00;;;;;27.49;38.29;100627.25;5036942;28;45418;-60
2021/07/29 03:35:51;;;;;;;;;0.00;0.00;;;;;27.46;37.67;100617.38;5055591;28;45468;-59
2021/07/29 03:38:17;;;;;;;;;0.00;0.00;;;;;27.46;37.86;100616.50;5054852;28;45594;-59
2021/07/29 03:40:43;;;;;;;;;0.00;0.00;;;;;27.47;38.27;100619.16;5055012;28;45752;-59
2021/07/29 03:43:09;;;;;;;;;0.00;0.00;;;;;27.46;38.22;100628.31;5055100;28;45378;-59
2021/07/29 03:45:37;;;;;;;;;0.00;0.00;;;;;27.46;38.05;100617.38;5055349;28;45476;-59
2021/07/29 03:48:03;;;;;;;;;0.00;0.00;;;;;27.46;38.26;100616.50;5054474;28;45345;-59
2021/07/29 03:50:30;;;;;;;;;0.00;0.00;;;;;27.45;38.20;100615.63;5049374;28;45960;-60
2021/07/29 03:52:56;;;;;;;;;0.00;0.00;;;;;27.46;38.16;100621.97;5034745;28;45472;-59
2021/07/29 03:55:21;;;;;;;;;0.00;0.00;;;;;27.46;37.92;100621.97;5035022;28;45513;-59
2021/07/29 03:57:48;;;;;;;;;0.00;0.00;;;;;27.44;37.97;100623.91;5034500;28;45510;-59
2021/07/29 04:00:14;;;;;;;;;0.00;0.00;;;;;27.45;38.40;100623.84;5034690;28;45534;-60
2021/07/29 04:02:40;;;;;;;;;0.00;0.00;;;;;27.45;38.37;100631.13;5034709;28;45924;-60
2021/07/29 04:05:06;;;;;;;;;0.00;0.00;;;;;27.44;37.96;100629.38;5034909;28;45445;-60
2021/07/29 04:07:33;;;;;;;;;0.00;0.00;;;;;27.45;38.58;100631.13;5034587;28;46215;-60
2021/07/29 04:10:00;;;;;;;;;0.00;0.00;;;;;27.44;38.45;100632.09;5034436;28;45463;-60
2021/07/29 04:12:25;;;;;;;;;0.00;0.00;;;;;27.43;37.88;100630.31;5038926;28;45429;-59
2021/07/29 04:14:50;;;;;;;;;0.00;0.00;;;;;27.43;38.43;100627.59;5054869;28;45517;-59
2021/07/29 04:17:17;;;;;;;;;0.00;0.00;;;;;27.41;38.15;100632.25;5054321;28;46130;-58
2021/07/29 04:19:43;;;;;;;;;0.00;0.00;;;;;27.40;38.50;100631.41;5054553;28;45475;-58
2021/07/29 04:22:09;;;;;;;;;0.00;0.00;;;;;27.40;38.41;100634.13;5054911;28;45237;-59
2021/07/29 04:24:35;;;;;;;;;0.00;0.00;;;;;27.39;38.38;100639.66;5054650;28;45437;-60
2021/07/29 04:27:01;;;;;;;;;0.00;0.00;;;;;27.38;37.98;100643.38;5036392;28;46293;-59
2021/07/29 04:29:27;;;;;;;;;0.00;0.00;;;;;27.37;38.10;100641.59;5054558;28;44964;-59
2021/07/29 04:31:53;;;;;;;;;0.00;0.00;;;;;27.37;37.89;100638.88;5054270;28;45421;-60
2021/07/29 04:34:20;;;;;;;;;0.00;0.00;;;;;27.36;37.94;100639.88;5054696;28;45799;-59
2021/07/29 04:36:46;;;;;;;;;0.00;0.00;;;;;27.35;38.56;100641.72;5054207;28;46130;-59
2021/07/29 04:39:12;;;;;;;;;0.00;0.00;;;;;27.32;38.26;100642.75;5054626;28;45433;-60
2021/07/29 04:41:42;;;;;;;;;0.00;0.00;;;;;27.32;38.42;100637.28;5057886;28;45392;-61
2021/07/29 04:44:09;;;;;;;;;0.00;0.00;;;;;27.33;38.33;100643.66;5058031;28;45360;-60
2021/07/29 04:46:36;;;;;;;;;0.00;0.00;;;;;27.32;38.05;100639.16;5057621;28;46958;-60
2021/07/29 04:49:03;;;;;;;;;0.00;0.00;;;;;27.29;38.44;100637.50;5057538;28;45419;-59
2021/07/29 04:51:28;;;;;;;;;0.00;0.00;;;;;27.30;37.93;100647.44;5057819;28;45460;-59
2021/07/29 04:53:54;;;;;;;;;0.00;0.00;;;;;27.29;38.44;100642.06;5058087;28;45475;-59
2021/07/29 04:56:19;;;;;;;;;0.00;0.00;;;;;27.28;37.96;100641.16;5057747;28;45995;-60
2021/07/29 04:58:49;;;;;;;;;0.00;0.00;;;;;27.27;37.84;100644.88;5057844;28;45788;-59
2021/07/29 05:01:14;;;;;;;;;0.00;0.00;;;;;27.26;38.43;100637.66;5057783;28;45386;-60
2021/07/29 05:03:39;;;;;;;;;0.00;0.00;;;;;27.26;38.52;100642.25;5057571;28;45747;-58
2021/07/29 05:06:05;;;;;;;;;0.00;0.00;;;;;27.24;37.97;100642.31;5057617;28;48045;-58
2021/07/29 05:08:30;;;;;;;;;0.00;0.00;;;;;27.24;38.02;100636.84;5056789;28;45468;-59
2021/07/29 05:10:56;;;;;;;;;0.00;0.00;;;;;27.24;38.54;100642.31;5057394;28;45398;-59
2021/07/29 05:13:22;;;;;;;;;0.00;0.00;;;;;27.22;38.16;100638.75;5057843;28;45484;-59
2021/07/29 05:15:47;;;;;;;;;0.00;0.00;;;;;27.23;38.60;100648.75;5057350;28;45440;-60
2021/07/29 05:18:13;;;;;;;;;0.00;0.00;;;;;27.22;38.39;100640.63;5056769;28;45443;-59
2021/07/29 05:20:38;;;;;;;;;0.00;0.00;;;;;27.23;38.32;100647.81;5057497;28;45943;-59
2021/07/29 05:23:04;;;;;;;;;0.00;0.00;;;;;27.22;38.13;100649.69;5057515;28;45441;-59
2021/07/29 05:25:32;;;;;;;;;0.00;0.00;;;;;27.22;38.03;100646.94;5057196;28;46102;-59
2021/07/29 05:27:57;;;;;;;;;0.00;0.00;;;;;27.21;38.42;100647.94;5057365;28;45412;-59
2021/07/29 05:30:22;;;;;;;;;0.00;0.00;;;;;27.24;38.68;100652.38;5039003;28;45447;-59
2021/07/29 05:32:48;;;;;;;;;0.00;0.00;;;;;27.24;38.70;100647.78;5057206;28;45470;-59
2021/07/29 05:35:14;;;;;;;;;0.00;0.00;;;;;27.26;38.58;100647.69;5057363;28;46063;-59
2021/07/29 05:37:40;;;;;;;;;0.00;0.00;;;;;27.27;38.32;100655.81;5057068;28;45602;-59
2021/07/29 05:40:08;;;;;;;;;0.00;0.00;;;;;27.29;38.64;100662.06;5056887;28;45555;-58
2021/07/29 05:42:34;;;;;;;;;0.33;0.00;;;;;27.30;38.55;100654.75;5057143;28;45498;-59
2021/07/29 05:45:00;;;;;;;;;0.00;0.00;;;;;27.31;38.00;100667.44;5057016;28;45525;-60
2021/07/29 05:47:26;;;;;;;;;0.00;0.00;;;;;27.31;38.08;100662.84;5056987;28;45476;-59
2021/07/29 05:49:51;;;;;;;;;0.00;0.00;;;;;27.32;38.60;100658.28;5056262;28;45608;-60
2021/07/29 05:52:17;;;;;;;;;0.00;0.00;;;;;27.34;38.41;100661.78;5056835;28;45331;-60
2021/07/29 05:54:42;;;;;;;;;0.00;0.00;;;;;27.35;38.00;100649.91;5056525;28;46441;-59
2021/07/29 05:57:07;;;;;;;;;0.00;0.00;;;;;27.37;38.61;100647.97;5056448;28;45358;-59
2021/07/29 05:59:33;;;;;;;;;0.00;0.00;;;;;27.37;38.11;100656.16;5056723;28;45372;-58
2021/07/29 06:01:58;;;;;;;;;0.00;0.00;;;;;27.37;38.04;100652.53;5038817;28;45762;-58
2021/07/29 06:04:23;;;;;;;;;0.00;0.00;;;;;27.39;38.26;100653.31;5056325;28;45459;-58
2021/07/29 06:06:49;;;;;;;;;0.00;0.00;;;;;27.41;38.43;100656.84;5056523;28;45405;-59
2021/07/29 06:09:14;;;;;;;;;0.00;0.00;;;;;27.43;38.27;100666.75;5038857;28;45587;-59
2021/07/29 06:11:39;;;;;;;;;0.00;0.00;;;;;27.44;37.97;100662.16;5057013;28;45380;-59
2021/07/29 06:14:05;;;;;;;;;0.00;0.00;;;;;27.45;37.96;100663.91;5056794;28;46202;-59
2021/07/29 06:16:30;;;;;;;;;0.00;0.00;;;;;27.45;37.85;100672.09;5056436;28;45549;-59
2021/07/29 06:19:06;;;;;;;;;0.00;0.00;;;;;27.48;37.67;100680.13;5056135;28;45547;-59
2021/07/29 06:21:32;;;;;;;;;0.00;0.00;;;;;27.49;38.39;100680.03;5040159;28;45505;-59
2021/07/29 06:23:57;;;;;;;;;0.00;0.00;;;;;27.51;38.33;100679.94;5056193;28;45430;-59
2021/07/29 06:26:23;;;;;;;;;0.00;0.00;;;;;27.50;37.88;100676.31;5056346;28;45516;-59
2021/07/29 06:28:48;;;;;;;;;0.00;0.00;;;;;27.53;38.29;100684.34;5055125;28;45497;-60
2021/07/29 06:31:13;;;;;;;;;0.00;0.00;;;;;27.54;37.61;100690.69;5038348;28;45547;-59
2021/07/29 06:33:39;;;;;;;;;0.00;0.00;;;;;27.57;37.61;100689.63;5055994;28;45763;-60
2021/07/29 06:36:04;;;;;;;;;0.00;0.00;;;;;27.58;37.92;100689.53;5056406;28;45462;-60
2021/07/29 06:38:30;;;;;;;;;0.00;0.00;;;;;27.59;37.72;100683.13;5056518;28;45492;-60
2021/07/29 06:40:55;;;;;;;;;0.00;0.00;;;;;27.60;37.61;100684.00;5056588;28;45373;-60
2021/07/29 06:43:20;;;;;;;;;0.00;0.00;;;;;27.62;38.17;100693.88;5055979;28;50076;-58
2021/07/29 06:45:46;;;;;;;;;0.00;0.00;;;;;27.63;37.51;100695.63;5055994;28;45447;-60
2021/07/29 06:48:11;;;;;;;;;0.00;0.00;;;;;27.65;37.99;100692.78;5055487;28;45508;-59
2021/07/29 06:50:36;;;;;;;;;1.00;0.00;;;;;27.67;38.02;100697.22;5055921;28;45435;-60
2021/07/29 06:53:02;;;;;;;;;0.00;0.00;;;;;27.68;38.19;100703.56;5055786;28;45987;-59
2021/07/29 06:55:27;;;;;;;;;0.00;0.00;;;;;27.68;37.48;100712.63;5055879;28;45362;-59
2021/07/29 06:57:52;;;;;;;;;0.00;0.00;;;;;27.69;37.62;100706.22;5056155;28;45903;-59
2021/07/29 07:00:20;;;;;;;;;0.00;0.00;;;;;27.70;38.22;100707.97;5056124;28;45355;-58
2021/07/29 07:02:46;;;;;;;;;0.33;0.33;;;;;27.71;37.66;100704.28;5054578;28;45529;-59
2021/07/29 07:05:11;;;;;;;;;0.00;0.00;;;;;27.72;38.31;100710.59;5055027;28;45538;-59
2021/07/29 07:07:36;;;;;;;;;0.00;0.00;;;;;27.76;37.71;100719.50;5055870;28;45676;-59
2021/07/29 07:13:23;;;;;;;;;0.00;0.00;;;;;27.80;38.13;100718.38;5055205;28;45447;-61
2021/07/29 07:15:49;;;;;;;;;0.00;0.00;;;;;27.82;38.51;100719.16;5055511;28;45439;-59
2021/07/29 07:18:14;;;;;;;;;0.00;0.00;;;;;27.84;37.69;100722.69;5055905;28;45641;-58
2021/07/29 07:20:39;;;;;;;;;0.00;0.00;;;;;27.84;38.02;100731.75;5036839;28;45466;-59
2021/07/29 07:23:25;;;;;;;;;0.00;0.00;;;;;27.86;37.92;100726.22;4799992;27;9279578;-61
2021/07/29 07:25:50;;;;;;;;;0.00;0.00;;;;;27.87;38.22;100737.06;5111846;27;45396;-61
2021/07/29 07:28:16;;;;;;;;;0.00;0.00;;;;;27.88;38.20;100727.03;5111077;27;45421;-57
2021/07/29 07:30:47;;;;;;;;;0.33;0.33;;;;;27.90;38.39;100733.28;5112245;27;45458;-60
2021/07/29 07:33:14;;;;;;;;;1.33;0.00;;;;;27.92;37.93;100736.81;5108368;27;45617;-60
2021/07/29 07:35:39;;;;;;;;;0.00;0.00;;;;;27.92;38.98;100728.63;5104908;27;45802;-62
2021/07/29 07:38:04;;;;;;;;;0.00;0.00;;;;;27.93;38.25;100736.72;5088618;27;45775;-61
2021/07/29 07:40:30;;;;;;;;;0.00;0.00;;;;;27.95;38.59;100731.16;5093373;27;45419;-59
2021/07/29 07:42:56;;;;;;;;;0.00;0.00;;;;;27.97;38.23;100733.81;5110898;27;45403;-59
2021/07/29 07:45:22;;;;;;;;;0.00;0.00;;;;;27.98;38.20;100733.72;5110004;27;45468;-59
2021/07/29 07:47:47;;;;;;;;;0.00;0.00;;;;;27.99;38.08;100738.19;5111366;27;45313;-59
2021/07/29 07:50:19;;;;;;;;;0.00;0.00;;;;;27.99;38.37;100732.72;5109697;27;45469;-58
2021/07/29 07:52:45;;;;;;;;;0.00;0.00;;;;;27.99;38.40;100732.72;5109416;27;45941;-59
2021/07/29 07:55:10;;;;;;;;;0.00;0.00;;;;;28.01;38.41;100729.91;5109279;27;45417;-59
2021/07/29 07:57:37;;;;;;;;;0.00;0.00;;;;;28.03;38.18;100725.22;5093364;27;45365;-61
2021/07/29 08:00:03;;;;;;;;;0.00;0.00;;;;;28.03;38.19;100727.97;5110749;27;45434;-59
2021/07/29 08:02:28;;;;;;;;;0.00;0.00;;;;;28.03;37.70;100731.56;5102183;27;45954;-59
2021/07/29 08:04:54;;;;;;;;;0.00;0.00;;;;;28.04;38.06;100727.88;5087746;27;45637;-59
2021/07/29 08:07:19;;;;;;;;;0.00;0.00;;;;;28.03;38.01;100720.63;5073680;27;45518;-59
2021/07/29 08:09:45;;;;;;;;;1.67;0.33;;;;;28.06;38.05;100736.88;5068630;27;46020;-58
2021/07/29 08:12:11;;;;;;;;;0.00;0.00;;;;;28.07;37.85;100727.69;5086944;27;45489;-59
2021/07/29 08:14:36;;;;;;;;;0.00;0.00;;;;;28.07;37.46;100733.16;5091182;27;45535;-59
2021/07/29 08:17:04;;;;;;;;;0.00;0.00;;;;;28.10;38.05;100726.66;5086730;27;45597;-59
2021/07/29 08:19:29;;;;;;;;;0.00;0.00;;;;;28.10;37.43;100730.25;5088314;27;45865;-60
2021/07/29 08:21:55;;;;;;;;;0.33;0.33;;;;;28.12;37.39;100728.31;5066375;28;47206;-60
2021/07/29 08:24:20;;;;;;;;;0.00;0.00;;;;;28.16;37.88;100726.28;5068199;28;45439;-61
2021/07/29 08:26:46;;;;;;;;;0.00;0.00;;;;;28.16;37.22;100729.00;5070154;27;45431;-59
2021/07/29 08:29:11;;;;;;;;;1.00;0.33;;;;;28.19;37.81;100730.69;5068762;28;45360;-59
2021/07/29 08:31:37;;;;;;;;;0.00;0.00;;;;;28.21;37.66;100726.00;5068389;27;45932;-59
2021/07/29 08:34:02;;;;;;;;;0.00;0.00;;;;;28.20;36.97;100727.84;5058488;27;45444;-60
2021/07/29 08:36:28;;;;;;;;;0.00;0.00;;;;;28.23;37.02;100718.56;5056634;28;45480;-60
2021/07/29 08:38:53;;;;;;;;;0.00;0.00;;;;;28.23;37.37;100724.03;5055929;28;45399;-59
2021/07/29 08:41:19;;;;;;;;;0.00;0.00;;;;;28.25;37.03;100733.03;5055273;28;45726;-60
2021/07/29 08:43:46;;;;;;;;;1.67;0.67;;;;;28.25;37.40;100730.31;5053572;28;45639;-59
2021/07/29 08:46:18;;;;;;;;;0.00;0.00;;;;;28.26;37.43;100722.00;5048009;28;45642;-59
2021/07/29 08:48:45;;;;;;;;;0.67;0.67;;;;;28.25;37.16;100730.31;5056413;28;45495;-60
2021/07/29 08:51:11;;;;;;;;;0.00;0.00;;;;;28.27;36.85;100733.81;5056104;28;45925;-60
2021/07/29 08:53:43;;;;;;;;;0.00;0.00;;;;;28.26;36.92;100730.22;5056130;28;45505;-60
2021/07/29 08:56:13;;;;;;;;;0.67;0.67;;;;;28.28;36.53;100724.66;5054326;28;45553;-60
2021/07/29 08:58:38;;;;;;;;;0.00;0.00;;;;;28.28;37.06;100725.53;5055668;28;45547;-60
2021/07/29 09:01:07;;;;;;;;;0.00;0.00;;;;;28.29;36.64;100721.81;5041177;28;46166;-62
2021/07/29 09:03:34;;;;;;;;;0.00;0.00;;;;;28.30;36.69;100723.59;5051060;28;45994;-59
2021/07/29 09:06:13;;;;;;;;;0.67;0.67;;;;;28.31;36.98;100725.34;5055233;28;45565;-59
2021/07/29 09:08:46;;;;;;;;;0.00;0.00;;;;;28.33;36.57;100726.13;5049051;28;45978;-59
2021/07/29 09:11:35;;;;;;;;;0.00;0.00;;;;;28.33;36.87;100722.50;5041313;28;45746;-60
2021/07/29 09:14:02;;;;;;;;;1.33;0.00;;;;;28.34;37.02;100718.81;5039550;28;45464;-59
2021/07/29 09:16:27;;;;;;;;;0.67;0.67;;;;;28.35;36.82;100720.56;5050752;28;45701;-59
2021/07/29 09:18:53;;;;;;;;;0.00;0.00;;;;;28.36;36.68;100716.88;5052101;28;45460;-59
2021/07/29 09:21:18;;;;;;;;;0.33;0.33;;;;;28.38;36.88;100724.97;5056978;28;46170;-59
2021/07/29 09:23:44;;;;;;;;;0.00;0.00;;;;;28.40;36.98;100712.97;5057989;28;45346;-59
2021/07/29 09:26:09;;;;;;;;;0.00;0.00;;;;;28.42;36.17;100713.78;5076091;28;45780;-59
2021/07/29 09:28:39;;;;;;;;;0.00;0.00;;;;;28.45;36.64;100716.28;5071716;28;45704;-59
2021/07/29 09:31:22;;;;;;;;;1.00;0.00;;;;;28.47;36.34;100699.78;5066195;28;46004;-59
2021/07/29 09:34:01;;;;;;;;;0.00;0.00;;;;;28.50;36.69;100713.31;5064677;28;45440;-60
2021/07/29 09:36:31;;;;;;;;;0.00;0.00;;;;;28.51;36.99;100715.94;5070642;28;45480;-60
2021/07/29 09:39:22;;;;;;;;;0.00;0.00;;;;;28.54;36.34;100714.88;5083934;27;45490;-60
2021/07/29 09:42:14;;;;;;;;;0.00;0.00;;;;;28.56;36.54;100712.06;5051745;28;47615;-60
2021/07/29 09:44:46;;;;;;;;;0.00;0.00;;;;;28.57;36.66;100708.34;5070205;28;45459;-59
2021/07/29 09:47:12;;;;;;;;;0.00;0.00;;;;;28.58;36.56;100707.38;5075582;28;45603;-59
2021/07/29 09:49:39;;;;;;;;;0.00;0.00;;;;;28.59;36.49;100706.41;5075745;28;45519;-60
2021/07/29 09:52:05;;;;;;;;;0.33;0.33;;;;;28.60;36.82;100702.69;5074714;28;45558;-60
2021/07/29 09:54:30;;;;;;;;;0.00;0.00;;;;;28.61;36.45;100697.13;5076166;28;45420;-60
2021/07/29 09:56:56;;;;;;;;;0.00;0.00;;;;;28.62;36.44;100698.00;5075146;27;45404;-59
2021/07/29 09:59:21;;;;;;;;;0.00;0.00;;;;;28.64;36.52;100705.16;5075499;28;45322;-59
2021/07/29 10:01:50;;;;;;;;;0.00;0.00;;;;;28.66;36.39;100700.47;5056762;27;47905;-59
2021/07/29 10:04:17;;;;;;;;;0.00;0.00;;;;;28.68;36.26;100706.72;5058426;28;45770;-60
2021/07/29 10:06:47;;;;;;;;;0.00;0.00;;;;;28.69;36.14;100700.25;5073385;28;45928;-60
2021/07/29 10:09:14;;;;;;;;;0.00;0.00;;;;;28.70;36.41;100698.38;5074198;28;45477;-60
2021/07/29 10:11:44;;;;;;;;;0.00;0.00;;;;;28.72;36.62;100696.44;5075180;28;45481;-59
2021/07/29 10:14:10;;;;;;;;;0.00;0.00;;;;;28.75;36.32;100699.00;5075220;27;45522;-59
2021/07/29 10:16:50;;;;;;;;;0.00;0.00;;;;;28.77;36.52;100693.44;5074616;28;45548;-62
2021/07/29 10:19:19;;;;;;;;;0.00;0.00;;;;;28.78;36.65;100700.66;5068870;28;45620;-59
2021/07/29 10:21:46;;;;;;;;;0.00;0.00;;;;;28.80;36.73;100695.97;5071045;28;46172;-60
2021/07/29 10:24:13;;;;;;;;;0.00;0.00;;;;;28.81;36.69;100686.78;5055064;28;45413;-61
2021/07/29 10:27:01;;;;;;;;;0.00;0.00;;;;;28.82;36.44;100689.41;5037070;28;45473;-59
2021/07/29 10:29:30;;;;;;;;;0.00;0.00;;;;;28.83;36.14;100688.44;5060555;27;45423;-60
2021/07/29 10:31:57;;;;;;;;;0.00;0.00;;;;;28.84;36.47;100690.19;5075428;28;46044;-61
2021/07/29 10:34:31;;;;;;;;;0.00;0.00;;;;;28.85;36.51;100685.63;5075311;28;45501;-61
2021/07/29 10:36:58;;;;;;;;;0.00;0.00;;;;;28.84;36.45;100684.72;5075268;28;45417;-59
2021/07/29 10:39:24;;;;;;;;;0.00;0.00;;;;;28.86;36.21;100681.88;5074748;28;45423;-61
2021/07/29 10:41:52;;;;;;;;;0.00;0.00;;;;;28.86;36.40;100682.75;5056464;28;45836;-61
2021/07/29 10:44:34;;;;;;;;;0.00;0.00;;;;;28.88;36.75;100677.19;5070427;28;45393;-59
2021/07/29 10:47:03;;;;;;;;;0.00;0.00;;;;;28.89;36.37;100679.84;5049985;28;45810;-57
2021/07/29 10:49:44;;;;;;;;;0.00;0.00;;;;;28.88;36.23;100678.09;5074126;27;45783;-58
2021/07/29 10:52:14;;;;;;;;;0.00;0.00;;;;;28.90;36.15;100681.63;5074975;28;46292;-59
2021/07/29 10:54:42;;;;;;;;;0.00;0.00;;;;;28.90;36.55;100686.19;5074156;28;45424;-59
2021/07/29 10:57:10;;;;;;;;;0.00;0.00;;;;;28.89;36.34;100679.84;5073843;28;45362;-59
2021/07/29 10:59:36;;;;;;;;;0.00;0.00;;;;;28.90;36.44;100681.63;5074199;28;45451;-59
2021/07/29 11:02:10;;;;;;;;;0.00;0.00;;;;;28.91;36.27;100686.09;5073692;27;46203;-59
2021/07/29 11:04:56;;;;;;;;;0.00;0.00;;;;;28.91;36.42;100682.50;5068658;27;45555;-59
2021/07/29 11:07:22;;;;;;;;;0.00;0.00;;;;;28.89;36.88;100673.50;5074201;28;45524;-59
2021/07/29 11:10:04;;;;;;;;;0.00;0.00;;;;;28.91;36.44;100674.28;5074141;28;45529;-59
2021/07/29 11:12:30;;;;;;;;;0.00;0.00;;;;;28.91;36.31;100668.81;5074113;28;45452;-58
2021/07/29 11:15:00;;;;;;;;;0.00;0.00;;;;;28.91;36.71;100674.28;5072952;28;45661;-62
2021/07/29 11:17:27;;;;;;;;;0.00;0.00;;;;;28.91;36.77;100671.53;5074056;28;45430;-62
2021/07/29 11:19:52;;;;;;;;;0.00;0.00;;;;;28.92;36.81;100671.44;5074034;28;45338;-60
2021/07/29 11:22:17;;;;;;;;;0.00;0.00;;;;;28.93;36.46;100673.19;5091483;27;45410;-60
2021/07/29 11:24:43;;;;;;;;;0.00;0.00;;;;;28.95;36.94;100674.97;5094230;27;45465;-61
2021/07/29 11:27:17;;;;;;;;;0.00;0.00;;;;;28.93;37.02;100670.44;5078598;27;46116;-61
2021/07/29 11:29:55;;;;;;;;;0.00;0.00;;;;;28.95;36.93;100670.34;5073933;28;45473;-63